Connaught Arpt, Ireland

8:42 AM GMT on February 25, 2017 (GMT +0000)
Connaught | | Change Station

Elev 210 ft 53.90 °N, 8.82 °W | Updated 12 minutes ago

Light Drizzle
Light Drizzle Rain
48 °F
Feels Like 48 °F
N
15
Wind Variable Wind from SW
Gusts 28 mph

Today
High -- | Low -- °F
--% Chance of Precip.
Yesterday
High -- | Low -- °F
Precip. -- in
Pressure 29.44 in
Visibility 1.2 miles
Clouds Overcast 200 ft
Dew Point 48 °F
Humidity 100%
Rainfall 0.00 in
Snow Depth Not available.
7:32 AM 6:04 PM
Waning Crescent, 2% visible
METAR EIKN 250830Z 22013G24KT 190V250 2000 -DZRA OVC002 09/09 Q0997 BECMG 9999 BKN007
Pressure 29.44 in
Visibility 1.2 miles
Clouds Overcast 200 ft
Dew Point 48 °F
Humidity 100%
Rainfall 0.00 in
Snow Depth Not available.
7:32 AM 6:04 PM
Waning Crescent, 2% visible
METAR EIKN 250830Z 22013G24KT 190V250 2000 -DZRA OVC002 09/09 Q0997 BECMG 9999 BKN007

Get Your Daily Forecast Email!

Thanks for signing up!

Be on the lookout for a verification email in your inbox.

You'll start receiving the daily forecast at 8 AM.

×

10-Day Weather Forecast

×

Almanac

Astronomy

Feb. 25, 2017 Rise Set
Actual Time
Civil Twilight
Nautical Twilight
Astronomical Twilight
Moon
Length of Visible Light
Length of Day
Tomorrow will be .
, % of the Moon is Illuminated

Today's Extremes

Country Highs Country Lows

Community

WunderPhotos

Upload Photos

1,962,540 photos uploaded!

WunderBlog® & News

Nearby

Air Quality

  Air Quality AQ Index Pollutant
Not available.

Snow Depth

Station Depth Elevation

Earthquake Activity

City Distance Mag. Time & Date
Minimum magnitude displayed is 2.5.

Coastal Water Temperatures

Place Temperature

Stations

Nearby Weather Stations

Station Location Temp. Windchill Dew Point Humidity Wind Precip. Elev Updated Type